createdAt,value
2016-10-14T00:00:01.556Z,70.02
2016-10-14T00:01:01.571Z,70.12
2016-10-14T00:02:01.581Z,70.5
2016-10-14T00:03:01.593Z,70.4
2016-10-14T00:04:01.612Z,70.4
2016-10-14T00:05:01.637Z,70.27
2016-10-14T00:06:01.647Z,70.37
2016-10-14T00:07:01.677Z,70.31
2016-10-14T00:08:01.681Z,70.88
2016-10-14T00:09:01.696Z,69.79
2016-10-14T00:10:01.712Z,70.18
2016-10-14T00:11:01.736Z,70.47
2016-10-14T00:12:01.747Z,69.51
2016-10-14T00:13:01.767Z,70.08
2016-10-14T00:14:01.787Z,69.99
2016-10-14T00:15:01.794Z,70.37
2016-10-14T00:16:01.820Z,70.02
2016-10-14T00:17:01.828Z,70.21
2016-10-14T00:18:01.850Z,70.27
2016-10-14T00:19:01.871Z,70.08
2016-10-14T00:20:01.878Z,70.12
2016-10-14T00:21:01.901Z,70.27
2016-10-14T00:22:01.913Z,69.89
2016-10-14T00:23:01.935Z,69.23
2016-10-14T00:24:01.942Z,69.51
2016-10-14T00:25:01.971Z,69.6
2016-10-14T00:26:01.986Z,70.27
2016-10-14T00:27:01.996Z,69.51
2016-10-14T00:28:02.012Z,69.7
2016-10-14T00:29:02.030Z,69.7
2016-10-14T00:30:02.043Z,70.18
2016-10-14T00:31:02.065Z,70.47
2016-10-14T00:32:02.078Z,70.27
2016-10-14T00:33:02.100Z,70.08
2016-10-14T00:34:02.117Z,70.08
2016-10-14T00:35:02.132Z,69.89
2016-10-14T00:36:02.149Z,70.18
2016-10-14T00:37:02.482Z,69.99
2016-10-14T00:38:02.175Z,69.79
2016-10-14T00:39:02.191Z,69.04
2016-10-14T00:40:02.211Z,69.42
2016-10-14T00:41:02.222Z,69.7
2016-10-14T00:42:02.248Z,69.99
2016-10-14T00:43:02.257Z,70.75
2016-10-14T00:44:02.293Z,70.18
2016-10-14T00:45:02.289Z,70.47
2016-10-14T00:46:02.306Z,70.18
2016-10-14T00:47:02.331Z,69.7
2016-10-14T00:48:02.343Z,69.79
2016-10-14T00:49:02.358Z,70.18
2016-10-14T00:50:02.373Z,70.27
2016-10-14T00:51:02.387Z,70.18
2016-10-14T00:52:02.433Z,70.37
2016-10-14T00:53:02.422Z,70.18
2016-10-14T00:54:02.440Z,70.47
2016-10-14T00:55:02.453Z,70.65
2016-10-14T00:56:02.477Z,69.89
2016-10-14T00:57:02.541Z,70.18
2016-10-14T00:58:02.523Z,69.79
2016-10-14T00:59:02.528Z,69.32
2016-10-14T01:00:02.542Z,69.23
2016-10-14T01:01:02.552Z,69.13
2016-10-14T01:02:02.575Z,69.23
2016-10-14T01:03:02.588Z,69.6
2016-10-14T01:04:02.605Z,69.51
2016-10-14T01:05:02.618Z,70.27
2016-10-14T01:06:02.647Z,70.18
2016-10-14T01:07:02.651Z,69.6
2016-10-14T01:08:02.684Z,68.94
2016-10-14T01:09:02.686Z,69.79
2016-10-14T01:10:02.701Z,69.99
2016-10-14T01:11:02.838Z,69.7
2016-10-14T01:12:02.847Z,69.89
2016-10-14T01:13:02.856Z,70.18
2016-10-14T01:14:02.892Z,69.89
2016-10-14T01:15:02.791Z,69.89
2016-10-14T01:16:02.801Z,70.65
2016-10-14T01:17:02.816Z,70.56
2016-10-14T01:18:02.950Z,69.89
2016-10-14T01:19:02.948Z,70.47
2016-10-14T01:20:02.959Z,70.37
2016-10-14T01:21:02.966Z,70.47
2016-10-14T01:22:03.001Z,70.27
2016-10-14T01:23:03.011Z,70.56
2016-10-14T01:24:03.011Z,70.65
2016-10-14T01:25:03.017Z,70.37
2016-10-14T01:26:03.029Z,70.65
2016-10-14T01:27:03.048Z,70.84
2016-10-14T01:28:03.073Z,70.27
2016-10-14T01:29:03.082Z,70.37
2016-10-14T01:30:03.092Z,69.99
2016-10-14T01:31:03.099Z,70.84
2016-10-14T01:32:03.110Z,70.47
2016-10-14T01:33:03.117Z,70.47
2016-10-14T01:34:03.118Z,70.27
2016-10-14T01:35:03.127Z,70.47
2016-10-14T01:36:03.147Z,70.56
2016-10-14T01:37:03.142Z,70.37
2016-10-14T01:38:03.168Z,70.37
2016-10-14T01:39:03.174Z,70.65
2016-10-14T01:40:03.191Z,70.65
2016-10-14T01:41:03.205Z,70.56
2016-10-14T01:42:03.251Z,70.47
2016-10-14T01:43:03.241Z,70.56
2016-10-14T01:44:03.289Z,70.27
2016-10-14T01:45:03.274Z,70.47
2016-10-14T01:46:03.294Z,70.27
2016-10-14T01:47:03.308Z,70.65
2016-10-14T01:48:03.326Z,70.37
2016-10-14T01:49:03.343Z,70.27
2016-10-14T01:50:03.370Z,70.47
2016-10-14T01:51:03.371Z,70.37
2016-10-14T01:52:03.411Z,70.56
2016-10-14T01:53:03.408Z,70.47
2016-10-14T01:54:03.423Z,70.47
2016-10-14T01:55:03.438Z,70.37
2016-10-14T01:56:03.450Z,70.27
2016-10-14T01:57:03.560Z,70.37
2016-10-14T01:58:03.498Z,70.37
2016-10-14T01:59:03.519Z,70.37
2016-10-14T02:00:03.519Z,70.47
2016-10-14T02:01:03.532Z,70.27
2016-10-14T02:02:03.551Z,70.65
2016-10-14T02:03:03.565Z,70.56
2016-10-14T02:04:03.584Z,70.75
2016-10-14T02:05:03.597Z,70.56
2016-10-14T02:06:03.630Z,70.37
2016-10-14T02:07:03.629Z,70.84
2016-10-14T02:08:03.651Z,69.89
2016-10-14T02:09:03.669Z,70.56
2016-10-14T02:10:03.681Z,70.56
2016-10-14T02:11:03.700Z,70.37
2016-10-14T02:12:03.720Z,70.47
2016-10-14T02:13:03.732Z,70.37
2016-10-14T02:14:03.754Z,70.56
2016-10-14T02:15:03.762Z,70.27
2016-10-14T02:16:03.785Z,70.37
2016-10-14T02:17:03.800Z,70.47
2016-10-14T02:18:03.809Z,70.37
2016-10-14T02:19:03.832Z,70.84
2016-10-14T02:20:03.861Z,70.47
2016-10-14T02:21:03.860Z,70.37
2016-10-14T02:22:03.875Z,70.37
2016-10-14T02:23:03.900Z,70.18
2016-10-14T02:24:03.910Z,70.27
2016-10-14T02:25:03.931Z,70.75
2016-10-14T02:26:03.944Z,70.56
2016-10-14T02:27:03.969Z,70.18
2016-10-14T02:28:03.985Z,70.08
2016-10-14T02:29:03.991Z,70.84
2016-10-14T02:30:04.010Z,70.56
2016-10-14T02:31:04.029Z,70.75
2016-10-14T02:32:04.044Z,70.56
2016-10-14T02:33:04.064Z,70.65
2016-10-14T02:34:04.073Z,70.75
2016-10-14T02:35:04.093Z,70.56
2016-10-14T02:36:04.422Z,70.75
2016-10-14T02:37:04.127Z,70.56
2016-10-14T02:38:04.139Z,70.56
2016-10-14T02:39:04.161Z,70.27
2016-10-14T02:40:04.174Z,70.08
2016-10-14T02:41:04.186Z,69.89
2016-10-14T02:42:04.211Z,70.18
2016-10-14T02:43:04.220Z,69.32
2016-10-14T02:44:04.240Z,70.37
2016-10-14T02:45:04.255Z,70.37
2016-10-14T02:46:04.277Z,70.47
2016-10-14T02:47:04.288Z,70.37
2016-10-14T02:48:04.299Z,70.56
2016-10-14T02:49:04.317Z,70.47
2016-10-14T02:50:04.332Z,70.47
2016-10-14T02:51:04.355Z,70.65
2016-10-14T02:52:04.368Z,70.27
2016-10-14T02:53:04.382Z,69.23
2016-10-14T02:54:04.398Z,69.23
2016-10-14T02:55:04.416Z,70.27
2016-10-14T02:56:04.429Z,70.18
2016-10-14T02:57:04.477Z,70.27
2016-10-14T02:58:04.463Z,70.56
2016-10-14T02:59:04.485Z,70.37
2016-10-14T03:00:04.509Z,70.27
2016-10-14T03:01:04.517Z,70.65
2016-10-14T03:02:04.533Z,70.56
2016-10-14T03:03:04.543Z,70.75
2016-10-14T03:04:04.881Z,71.13
2016-10-14T03:05:04.574Z,70.65
2016-10-14T03:06:04.595Z,70.56
2016-10-14T03:07:04.619Z,71.03
2016-10-14T03:08:04.624Z,70.27
2016-10-14T03:09:04.648Z,70.37
2016-10-14T03:10:04.693Z,70.47
2016-10-14T03:11:04.673Z,70.65
2016-10-14T03:12:04.693Z,70.27
2016-10-14T03:13:04.710Z,70.47
2016-10-14T03:14:04.726Z,70.56
2016-10-14T03:15:04.741Z,70.37
2016-10-14T03:16:04.755Z,70.37
2016-10-14T03:17:04.776Z,69.99
2016-10-14T03:18:04.802Z,70.56
2016-10-14T03:19:04.827Z,69.99
2016-10-14T03:20:04.823Z,70.37
2016-10-14T03:21:04.841Z,69.99
2016-10-14T03:22:04.857Z,70.18
2016-10-14T03:23:04.869Z,70.18
2016-10-14T03:24:04.893Z,70.27
2016-10-14T03:25:04.910Z,70.75
2016-10-14T03:26:04.922Z,70.08
2016-10-14T03:27:04.940Z,70.08
2016-10-14T03:28:04.954Z,69.99
2016-10-14T03:29:04.981Z,69.99
2016-10-14T03:30:04.987Z,70.18
2016-10-14T03:31:04.999Z,70.08
2016-10-14T03:32:05.015Z,70.27
2016-10-14T03:33:05.040Z,70.27
2016-10-14T03:34:05.053Z,70.08
2016-10-14T03:35:05.069Z,70.18
2016-10-14T03:36:05.086Z,70.37
2016-10-14T03:37:05.105Z,70.75
2016-10-14T03:38:05.122Z,70.75
2016-10-14T03:39:05.128Z,70.27
2016-10-14T03:40:05.167Z,70.08
2016-10-14T03:41:05.259Z,70.27
2016-10-14T03:42:05.220Z,70.65
2016-10-14T03:43:05.278Z,70.37
2016-10-14T03:44:05.246Z,70.37
2016-10-14T03:45:05.287Z,70.18
2016-10-14T03:46:05.312Z,70.47
2016-10-14T03:47:05.952Z,70.18
2016-10-14T03:48:05.335Z,69.99
2016-10-14T03:49:05.293Z,69.99
2016-10-14T03:50:05.312Z,70.18
2016-10-14T03:51:05.348Z,70.37
2016-10-14T03:52:05.744Z,70.47
2016-10-14T03:53:05.358Z,70.37
2016-10-14T03:54:05.373Z,70.37
2016-10-14T03:55:05.448Z,70.47
2016-10-14T03:56:05.415Z,70.37
2016-10-14T03:57:05.428Z,70.08
2016-10-14T03:58:05.439Z,70.08
2016-10-14T03:59:05.467Z,69.99
2016-10-14T04:00:05.472Z,70.27
2016-10-14T04:01:05.493Z,70.08
2016-10-14T04:02:05.532Z,70.08
2016-10-14T04:03:05.712Z,70.47
2016-10-14T04:04:05.616Z,70.18
2016-10-14T04:05:05.620Z,70.18
2016-10-14T04:06:05.677Z,70.84
2016-10-14T04:07:05.613Z,70.47
2016-10-14T04:08:05.619Z,70.18
2016-10-14T04:09:05.822Z,69.99
2016-10-14T04:10:05.633Z,70.37
2016-10-14T04:11:05.663Z,70.37
2016-10-14T04:12:05.669Z,69.51
2016-10-14T04:13:05.683Z,69.32
2016-10-14T04:14:05.697Z,70.37
2016-10-14T04:15:05.713Z,70.37
2016-10-14T04:16:05.730Z,70.37
2016-10-14T04:17:05.753Z,70.56
2016-10-14T04:18:05.780Z,70.47
2016-10-14T04:19:05.785Z,70.37
2016-10-14T04:20:05.798Z,70.47
2016-10-14T04:21:05.818Z,70.27
2016-10-14T04:22:05.836Z,70.75
2016-10-14T04:23:05.842Z,70.56
2016-10-14T04:24:05.866Z,70.08
2016-10-14T04:25:05.881Z,70.18
2016-10-14T04:26:05.891Z,70.08
2016-10-14T04:27:05.908Z,70.47
2016-10-14T04:28:05.931Z,70.27
2016-10-14T04:29:05.941Z,70.75
2016-10-14T04:30:05.959Z,70.94
2016-10-14T04:31:05.979Z,71.13
2016-10-14T04:32:06.008Z,70.47
2016-10-14T04:33:06.008Z,70.65
2016-10-14T04:34:06.026Z,70.56
2016-10-14T04:35:06.053Z,70.56
2016-10-14T04:36:06.053Z,70.65
2016-10-14T04:37:06.072Z,70.37
2016-10-14T04:38:06.088Z,70.47
2016-10-14T04:39:06.109Z,70.18
2016-10-14T04:40:06.119Z,70.27
2016-10-14T04:41:06.138Z,70.37
2016-10-14T04:42:06.154Z,70.56
2016-10-14T04:43:06.167Z,71.03
2016-10-14T04:44:06.575Z,70.75
2016-10-14T04:45:06.198Z,70.37
2016-10-14T04:46:06.223Z,70.65
2016-10-14T04:47:06.241Z,70.37
2016-10-14T04:48:06.265Z,70.27
2016-10-14T04:49:06.262Z,70.37
2016-10-14T04:50:06.283Z,70.27
2016-10-14T04:51:06.303Z,70.47
2016-10-14T04:52:06.318Z,70.37
2016-10-14T04:53:06.333Z,70.75
2016-10-14T04:54:06.351Z,70.37
2016-10-14T04:55:06.369Z,70.37
2016-10-14T04:56:06.385Z,70.37
2016-10-14T04:57:06.397Z,70.56
2016-10-14T04:58:06.414Z,70.75
2016-10-14T04:59:06.550Z,70.75
2016-10-14T05:00:06.559Z,70.56
2016-10-14T05:01:06.569Z,70.27
2016-10-14T05:02:06.502Z,70.65
2016-10-14T05:03:06.504Z,70.27
2016-10-14T05:04:06.513Z,70.37
2016-10-14T05:05:06.528Z,70.27
2016-10-14T05:06:06.662Z,70.37
2016-10-14T05:07:06.671Z,69.89
2016-10-14T05:08:06.670Z,70.47
2016-10-14T05:09:06.819Z,70.65
2016-10-14T05:10:06.723Z,70.56
2016-10-14T05:11:06.722Z,70.47
2016-10-14T05:12:06.731Z,70.37
2016-10-14T05:13:06.739Z,70.65
2016-10-14T05:14:06.738Z,70.18
2016-10-14T05:15:06.761Z,70.37
2016-10-14T05:16:06.771Z,70.27
2016-10-14T05:17:06.717Z,70.37
2016-10-14T05:18:06.746Z,69.99
2016-10-14T05:19:06.749Z,69.89
2016-10-14T05:20:06.769Z,69.79
2016-10-14T05:21:06.789Z,69.51
2016-10-14T05:22:06.801Z,70.18
2016-10-14T05:23:06.819Z,69.23
2016-10-14T05:24:06.838Z,69.79
2016-10-14T05:25:06.861Z,70.08
2016-10-14T05:26:06.866Z,70.27
2016-10-14T05:27:06.885Z,70.27
2016-10-14T05:28:06.896Z,70.37
2016-10-14T05:29:06.919Z,70.37
2016-10-14T05:30:06.935Z,70.47
2016-10-14T05:31:06.946Z,70.75
2016-10-14T05:32:07.289Z,70.27
2016-10-14T05:33:06.982Z,70.37
2016-10-14T05:34:07.323Z,69.7
2016-10-14T05:35:07.016Z,70.08
2016-10-14T05:36:07.029Z,69.99
2016-10-14T05:37:07.049Z,70.47
2016-10-14T05:38:07.070Z,70.62
2016-10-14T05:39:07.100Z,70.18
2016-10-14T05:40:07.094Z,70.65
2016-10-14T05:41:07.113Z,70.27
2016-10-14T05:42:07.129Z,70.75
2016-10-14T05:43:07.165Z,70.18
2016-10-14T05:44:07.163Z,70.37
2016-10-14T05:45:07.171Z,70.47
2016-10-14T05:46:07.196Z,70.84
2016-10-14T05:47:07.210Z,70.84
2016-10-14T05:48:07.231Z,70.75
2016-10-14T05:49:07.240Z,70.65
2016-10-14T05:50:07.265Z,70.47
2016-10-14T05:51:07.272Z,70.37
2016-10-14T05:52:07.287Z,70.94
2016-10-14T05:53:07.308Z,70.47
2016-10-14T05:54:07.436Z,70.94
2016-10-14T05:55:07.455Z,70.84
2016-10-14T05:56:07.464Z,70.84
2016-10-14T05:57:07.472Z,71.22
2016-10-14T05:58:07.401Z,70.56
2016-10-14T05:59:07.506Z,70.75
2016-10-14T06:00:07.423Z,70.94
2016-10-14T06:01:07.440Z,70.56
2016-10-14T06:02:07.449Z,70.94
2016-10-14T06:03:07.468Z,70.47
2016-10-14T06:04:07.485Z,70.75
2016-10-14T06:05:07.503Z,70.27
2016-10-14T06:06:07.530Z,70.37
2016-10-14T06:07:07.533Z,69.51
2016-10-14T06:08:07.550Z,70.18
2016-10-14T06:09:07.565Z,70.37
2016-10-14T06:10:07.586Z,70.37
2016-10-14T06:11:07.602Z,70.56
2016-10-14T06:12:07.619Z,70.65
2016-10-14T06:13:07.627Z,70.56
2016-10-14T06:14:07.658Z,70.27
2016-10-14T06:15:07.672Z,69.7
2016-10-14T06:16:07.682Z,69.51
2016-10-14T06:17:07.708Z,69.7
2016-10-14T06:18:07.717Z,70.08
2016-10-14T06:19:07.732Z,69.79
2016-10-14T06:20:07.758Z,69.51
2016-10-14T06:21:07.758Z,69.23
2016-10-14T06:22:07.800Z,69.42
2016-10-14T06:23:07.790Z,69.6
2016-10-14T06:24:07.876Z,69.6
2016-10-14T06:25:07.825Z,69.23
2016-10-14T06:26:07.843Z,69.13
2016-10-14T06:27:07.861Z,70.37
2016-10-14T06:28:07.879Z,70.27
2016-10-14T06:29:07.896Z,70.84
2016-10-14T06:30:07.923Z,70.37
2016-10-14T06:31:07.927Z,70.56
2016-10-14T06:32:07.954Z,70.75
2016-10-14T06:33:07.959Z,70.56
2016-10-14T06:34:07.968Z,70.56
2016-10-14T06:35:07.992Z,70.65
2016-10-14T06:36:08.006Z,70.75
2016-10-14T06:37:08.016Z,70.65
2016-10-14T06:38:08.039Z,70.08
2016-10-14T06:39:08.055Z,70.37
2016-10-14T06:40:08.395Z,69.89
2016-10-14T06:41:08.085Z,69.6
2016-10-14T06:42:08.430Z,70.08
2016-10-14T06:43:08.112Z,70.37
2016-10-14T06:44:08.136Z,70.37
2016-10-14T06:45:08.148Z,70.47
2016-10-14T06:46:08.181Z,70.56
2016-10-14T06:47:08.180Z,71.03
2016-10-14T06:48:08.215Z,70.94
2016-10-14T06:49:08.219Z,70.75
2016-10-14T06:50:08.236Z,70.18
2016-10-14T06:51:08.244Z,70.47
2016-10-14T06:52:08.271Z,70.56
2016-10-14T06:53:08.284Z,70.84
2016-10-14T06:54:08.295Z,70.65
2016-10-14T06:55:08.319Z,70.75
2016-10-14T06:56:08.326Z,70.75
2016-10-14T06:57:08.348Z,70.84
2016-10-14T06:58:08.357Z,70.75
2016-10-14T06:59:08.380Z,70.37
2016-10-14T07:00:08.395Z,70.65
2016-10-14T07:01:08.410Z,70.27
2016-10-14T07:02:08.429Z,70.56
2016-10-14T07:03:08.440Z,70.65
2016-10-14T07:04:08.461Z,70.65
2016-10-14T07:05:08.473Z,70.56
2016-10-14T07:06:08.487Z,70.5
2016-10-14T07:07:08.514Z,70.02
2016-10-14T07:08:08.535Z,70.5
2016-10-14T07:09:08.537Z,70.18
2016-10-14T07:10:08.568Z,69.83
2016-10-14T07:11:08.576Z,69.7
2016-10-14T07:12:08.587Z,69.45
2016-10-14T07:13:08.602Z,70.5
2016-10-14T07:14:08.629Z,70.02
2016-10-14T07:15:08.644Z,70.31
2016-10-14T07:16:08.659Z,70.21
2016-10-14T07:17:08.676Z,70.02
2016-10-14T07:18:08.690Z,70.4
2016-10-14T07:19:08.704Z,70.4
2016-10-14T07:20:08.729Z,70.21
2016-10-14T07:21:08.741Z,69.93
2016-10-14T07:22:08.757Z,70.21
2016-10-14T07:23:08.772Z,70.5
2016-10-14T07:24:08.784Z,70.31
2016-10-14T07:25:08.806Z,69.74
2016-10-14T07:26:08.824Z,70.02
2016-10-14T07:27:08.844Z,70.12
2016-10-14T07:28:08.847Z,69.26
2016-10-14T07:29:08.874Z,69.64
2016-10-14T07:30:08.886Z,69.17
2016-10-14T07:31:09.341Z,69.54
2016-10-14T07:32:08.918Z,68.59
2016-10-14T07:33:08.932Z,68.5
2016-10-14T07:34:08.957Z,68.21
2016-10-14T07:35:08.971Z,68.59
2016-10-14T07:36:08.988Z,67.83
2016-10-14T07:37:09.012Z,69.07
2016-10-14T07:38:09.030Z,68.5
2016-10-14T07:39:09.037Z,69.35
2016-10-14T07:40:09.053Z,69.17
2016-10-14T07:41:09.069Z,68.98
2016-10-14T07:42:09.147Z,68.98
2016-10-14T07:43:09.102Z,69.26
2016-10-14T07:44:09.118Z,69.35
2016-10-14T07:45:09.133Z,69.54
2016-10-14T07:46:09.165Z,69.45
2016-10-14T07:47:09.172Z,69.45
2016-10-14T07:48:09.189Z,69.48
2016-10-14T07:49:09.203Z,69.26
2016-10-14T07:50:09.211Z,68.59
2016-10-14T07:51:09.238Z,68.59
2016-10-14T07:52:09.253Z,68.53
2016-10-14T07:53:09.267Z,68.44
2016-10-14T07:54:09.285Z,68.91
2016-10-14T07:55:09.298Z,68.63
2016-10-14T07:56:09.319Z,69.48
2016-10-14T07:57:09.335Z,68.91
2016-10-14T07:58:09.347Z,69.39
2016-10-14T07:59:09.364Z,69.01
2016-10-14T08:00:09.388Z,69.2
2016-10-14T08:01:09.396Z,69.29
2016-10-14T08:02:09.420Z,69.1
2016-10-14T08:03:09.436Z,69.01
2016-10-14T08:04:09.760Z,69.58
2016-10-14T08:05:09.464Z,69.58
2016-10-14T08:06:09.480Z,69.58
2016-10-14T08:07:09.512Z,69.01
2016-10-14T08:08:09.519Z,69.1
2016-10-14T08:09:09.535Z,69.29
2016-10-14T08:10:09.553Z,69.1
2016-10-14T08:11:09.567Z,69.2
2016-10-14T08:12:09.896Z,68.53
2016-10-14T08:13:09.634Z,68.34
2016-10-14T08:14:09.626Z,68.63
2016-10-14T08:15:09.638Z,69.01
2016-10-14T08:16:09.655Z,68.57
2016-10-14T08:17:09.683Z,68.15
2016-10-14T08:18:09.706Z,68.47
2016-10-14T08:19:09.705Z,68.57
2016-10-14T08:20:09.721Z,68.66
2016-10-14T08:21:09.740Z,68.66
2016-10-14T08:22:10.068Z,67.52
2016-10-14T08:23:09.770Z,67.04
2016-10-14T08:24:09.785Z,66.66
2016-10-14T08:25:09.804Z,66.94
2016-10-14T08:26:09.825Z,66.75
2016-10-14T08:27:09.837Z,66.47
2016-10-14T08:28:09.856Z,66.28
2016-10-14T08:29:09.927Z,66.56
2016-10-14T08:30:09.907Z,66.91
2016-10-14T08:31:09.908Z,66.85
2016-10-14T08:32:09.919Z,66.66
2016-10-14T08:33:09.934Z,66.47
2016-10-14T08:34:09.956Z,67.04
2016-10-14T08:35:09.985Z,66.85
2016-10-14T08:36:09.994Z,67.1
2016-10-14T08:37:10.005Z,66.91
2016-10-14T08:38:10.024Z,66.66
2016-10-14T08:39:10.045Z,67.39
2016-10-14T08:40:10.066Z,67.96
2016-10-14T08:41:10.080Z,68.09
2016-10-14T08:42:10.101Z,67.52
2016-10-14T08:43:10.119Z,67.9
2016-10-14T08:44:10.139Z,67.14
2016-10-14T08:45:10.145Z,68.18
2016-10-14T08:46:10.589Z,68.47
2016-10-14T08:47:10.181Z,67.71
2016-10-14T08:48:10.195Z,67.52
2016-10-14T08:49:10.217Z,67.61
2016-10-14T08:50:10.402Z,67.52
2016-10-14T08:55:31.338Z,67.8
2016-10-14T08:56:31.028Z,67.9
2016-10-14T08:57:31.056Z,67.9
2016-10-14T08:58:31.073Z,67.71
2016-10-14T08:59:31.080Z,67.23
2016-10-14T09:00:31.100Z,67.14
2016-10-14T09:01:31.114Z,66.85
2016-10-14T09:02:31.134Z,67.23
2016-10-14T09:03:31.156Z,67.42
2016-10-14T09:04:31.167Z,67.14
2016-10-14T09:05:31.186Z,67.23
2016-10-14T09:06:31.200Z,67.04
2016-10-14T09:07:31.231Z,66.75
2016-10-14T09:08:31.243Z,66.85
2016-10-14T09:09:31.356Z,66.78
2016-10-14T09:10:31.271Z,66.78
2016-10-14T09:11:31.367Z,66.78
2016-10-14T09:12:31.312Z,67.17
2016-10-14T09:13:31.387Z,66.28
2016-10-14T09:14:31.395Z,67.04
2016-10-14T09:15:31.391Z,67.27
2016-10-14T09:16:31.403Z,67.14
2016-10-14T09:17:31.423Z,66.31
2016-10-14T09:18:31.418Z,66.31
2016-10-14T09:19:31.434Z,66.41
2016-10-14T09:20:31.540Z,66.6
2016-10-14T09:21:31.549Z,66.88
2016-10-14T09:22:31.558Z,66.12
2016-10-14T09:23:31.501Z,66.88
2016-10-14T09:24:31.516Z,66.12
2016-10-14T09:25:31.612Z,65.93
2016-10-14T09:26:31.553Z,66.41
2016-10-14T09:27:31.570Z,66.22
2016-10-14T09:28:31.591Z,66.12
2016-10-14T09:29:31.596Z,66.5
2016-10-14T09:30:31.620Z,66.41
2016-10-14T09:31:31.642Z,66.6
2016-10-14T09:32:31.658Z,65.83
2016-10-14T09:33:31.672Z,65.93
2016-10-14T09:34:31.686Z,65.93
2016-10-14T09:35:31.712Z,65.77
2016-10-14T09:36:31.727Z,65.77
2016-10-14T09:37:31.739Z,65.96
2016-10-14T09:38:31.767Z,65.87
2016-10-14T09:39:31.777Z,65.96
2016-10-14T09:40:31.795Z,65.48
2016-10-14T09:41:31.817Z,65.67
2016-10-14T09:42:31.832Z,65.96
2016-10-14T09:43:31.846Z,65.96
2016-10-14T09:44:31.859Z,65.77
2016-10-14T09:45:31.883Z,65.2
2016-10-14T09:46:31.899Z,65.01
2016-10-14T09:47:31.912Z,65.77
2016-10-14T09:48:31.939Z,65.39
2016-10-14T09:49:31.947Z,65.04
2016-10-14T09:50:31.971Z,64.62
2016-10-14T09:51:32.005Z,64.65
2016-10-14T09:52:32.018Z,64.56
2016-10-14T09:53:32.022Z,64.37
2016-10-14T09:54:32.038Z,64.09
2016-10-14T09:55:32.110Z,64.09
2016-10-14T09:56:32.092Z,64.18
2016-10-14T09:57:32.098Z,64.37
2016-10-14T09:58:32.114Z,64.37
2016-10-14T09:59:32.128Z,64.65
2016-10-14T10:00:32.151Z,64.37
2016-10-14T10:01:32.162Z,64.37
2016-10-14T10:02:32.185Z,64.22
2016-10-14T10:03:32.272Z,63.64
2016-10-14T10:04:32.222Z,64.22
2016-10-14T10:05:32.230Z,64.12
2016-10-14T10:06:32.257Z,63.64
2016-10-14T10:07:32.274Z,63.54
2016-10-14T10:08:32.292Z,63.93
2016-10-14T10:09:32.306Z,63.64
2016-10-14T10:10:32.320Z,63.16
2016-10-14T10:11:32.342Z,63.83
2016-10-14T10:12:32.361Z,63.35
2016-10-14T10:13:32.376Z,63.26
2016-10-14T10:14:32.393Z,64.12
2016-10-14T10:15:32.416Z,64.12
2016-10-14T10:16:32.432Z,63.54
2016-10-14T10:17:32.454Z,63.26
2016-10-14T10:18:32.470Z,63.26
2016-10-14T10:19:32.494Z,62.78
2016-10-14T10:20:32.507Z,62.78
2016-10-14T10:21:32.526Z,62.49
2016-10-14T10:22:32.538Z,63.07
2016-10-14T10:23:32.563Z,62.52
2016-10-14T10:24:32.580Z,62.81
2016-10-14T10:25:32.601Z,62.62
2016-10-14T10:26:32.611Z,62.71
2016-10-14T10:27:32.636Z,61.76
2016-10-14T10:28:32.648Z,61.66
2016-10-14T10:29:32.672Z,61.76
2016-10-14T10:30:32.685Z,61.95
2016-10-14T10:31:32.706Z,61.47
2016-10-14T10:32:32.723Z,61.66
2016-10-14T10:33:32.741Z,61.57
2016-10-14T10:34:32.760Z,61.09
2016-10-14T10:35:32.779Z,60.71
2016-10-14T10:36:32.809Z,61.38
2016-10-14T10:37:32.822Z,61.09
2016-10-14T10:38:32.831Z,61.19
2016-10-14T10:39:32.854Z,61.47
2016-10-14T10:40:32.875Z,61.19
2016-10-14T10:41:32.887Z,61.31
2016-10-14T10:42:32.913Z,61.6
2016-10-14T10:43:32.926Z,61.22
2016-10-14T10:44:32.943Z,61.51
2016-10-14T10:45:32.963Z,61.02
2016-10-14T10:46:32.988Z,61.22
2016-10-14T10:47:33.005Z,61.22
2016-10-14T10:48:33.022Z,61.22
2016-10-14T10:49:33.042Z,61.22
2016-10-14T10:50:33.060Z,61.12
2016-10-14T10:51:33.081Z,61.12
2016-10-14T10:52:33.099Z,61.22
2016-10-14T10:53:33.117Z,61.31
2016-10-14T10:54:33.137Z,60.93
2016-10-14T10:55:33.152Z,60.93
2016-10-14T10:56:33.171Z,60.35
2016-10-14T10:57:33.194Z,60.64
2016-10-14T10:58:33.213Z,60.58
2016-10-14T10:59:33.235Z,60.58
2016-10-14T11:00:33.252Z,60.29
2016-10-14T11:01:33.363Z,60
2016-10-14T11:02:33.371Z,60.86
2016-10-14T11:03:33.371Z,60.29
2016-10-14T11:04:33.325Z,60.1
2016-10-14T11:05:33.339Z,60
2016-10-14T11:06:33.359Z,59.91
2016-10-14T11:07:33.377Z,60.38
2016-10-14T11:08:33.402Z,60.1
2016-10-14T11:09:33.420Z,60.29
2016-10-14T11:10:33.444Z,59.81
2016-10-14T11:11:33.453Z,59.91
2016-10-14T11:12:33.482Z,59.72
2016-10-14T11:13:33.497Z,59.62
2016-10-14T11:14:33.520Z,59.23
2016-10-14T11:15:33.529Z,59.52
2016-10-14T11:16:33.553Z,59.72
2016-10-14T11:17:33.581Z,59.23
2016-10-14T11:18:33.594Z,59.52
2016-10-14T11:19:33.623Z,58.66
2016-10-14T11:20:33.630Z,58.86
2016-10-14T11:21:33.648Z,58.69
2016-10-14T11:22:33.673Z,58.59
2016-10-14T11:23:33.694Z,58.76
2016-10-14T11:24:33.707Z,58.88
2016-10-14T11:25:33.724Z,58.88
2016-10-14T11:26:33.755Z,58.79
2016-10-14T11:27:33.761Z,58.5
2016-10-14T11:28:33.791Z,59.08
2016-10-14T11:29:33.811Z,58.88
2016-10-14T11:30:33.827Z,59.08
2016-10-14T11:31:33.847Z,58.98
2016-10-14T11:32:33.861Z,58.98
2016-10-14T11:33:33.884Z,58.88
2016-10-14T11:34:33.900Z,58.88
2016-10-14T11:35:33.919Z,58.69
2016-10-14T11:36:33.942Z,58.5
2016-10-14T11:37:33.967Z,58.69
2016-10-14T11:38:33.987Z,58.02
2016-10-14T11:39:34.003Z,58.22
2016-10-14T11:40:34.221Z,58.31
2016-10-14T11:41:34.041Z,58.02
2016-10-14T11:42:34.061Z,58.31
2016-10-14T11:43:34.080Z,57.92
2016-10-14T11:44:34.111Z,58.22
2016-10-14T11:45:34.118Z,57.92
2016-10-14T11:46:34.138Z,58.02
2016-10-14T11:47:34.167Z,58.22
2016-10-14T11:48:34.184Z,57.45
2016-10-14T11:49:34.193Z,57.26
2016-10-14T11:50:34.213Z,57.83
2016-10-14T11:51:34.242Z,57.86
2016-10-14T11:52:34.256Z,57.95
2016-10-14T11:53:34.280Z,57.76
2016-10-14T11:54:34.299Z,57.86
2016-10-14T11:55:34.314Z,57.28
2016-10-14T11:56:34.337Z,57.67
2016-10-14T11:57:34.355Z,57.28
2016-10-14T11:58:34.377Z,57.28
2016-10-14T11:59:34.393Z,57.38
2016-10-14T12:00:34.426Z,57.38
2016-10-14T12:01:34.440Z,57.38
2016-10-14T12:02:34.453Z,57.28
2016-10-14T12:03:34.478Z,56.61
2016-10-14T12:04:34.496Z,56.23
2016-10-14T12:05:34.520Z,55.94
2016-10-14T12:06:34.537Z,56.32
2016-10-14T12:07:34.556Z,56.42
2016-10-14T12:08:34.578Z,56.23
2016-10-14T12:09:34.597Z,56.04
2016-10-14T12:10:34.612Z,55.87
2016-10-14T12:11:34.640Z,56.32
2016-10-14T12:12:34.650Z,56.81
2016-10-14T12:13:34.677Z,57.38
2016-10-14T12:14:34.693Z,57.41
2016-10-14T12:15:34.716Z,56.74
2016-10-14T12:16:34.741Z,56.74
2016-10-14T12:17:34.751Z,57.12
2016-10-14T12:18:34.779Z,56.93
2016-10-14T12:19:34.795Z,57.19
2016-10-14T12:20:34.813Z,56.54
2016-10-14T12:21:34.840Z,56.54
2016-10-14T12:22:34.856Z,56.26
2016-10-14T12:23:34.884Z,56.13
2016-10-14T12:24:34.902Z,56.23
2016-10-14T12:25:34.918Z,56.04
2016-10-14T12:26:34.941Z,56.13
2016-10-14T12:27:34.955Z,56.71
2016-10-14T12:28:34.983Z,56.71
2016-10-14T12:29:34.999Z,56.81
2016-10-14T12:30:35.016Z,57.09
2016-10-14T12:31:35.045Z,57.19
2016-10-14T12:32:35.059Z,57.09
2016-10-14T12:33:35.092Z,56.99
2016-10-14T12:34:35.106Z,56.61
2016-10-14T12:35:35.122Z,57.09
2016-10-14T12:36:35.145Z,56.71
2016-10-14T12:37:35.159Z,57.48
2016-10-14T12:38:35.194Z,56.99
2016-10-14T12:39:35.202Z,57.38
2016-10-14T12:40:35.221Z,57.28
2016-10-14T12:41:35.245Z,56.61
2016-10-14T12:42:35.270Z,56.61
2016-10-14T12:43:35.283Z,56.61
2016-10-14T12:44:35.306Z,56.9
2016-10-14T12:45:35.321Z,56.61
2016-10-14T12:46:35.344Z,56.71
2016-10-14T12:47:35.365Z,56.35
2016-10-14T12:48:35.388Z,56.13
2016-10-14T12:49:35.411Z,56.71
2016-10-14T12:50:35.430Z,56.04
2016-10-14T12:51:35.449Z,56.32
2016-10-14T12:52:35.464Z,56.04
2016-10-14T12:53:35.487Z,55.94
2016-10-14T12:54:35.504Z,55.65
2016-10-14T12:55:35.532Z,55.94
2016-10-14T12:56:35.558Z,55.65
2016-10-14T12:57:35.566Z,56.04
2016-10-14T12:58:35.599Z,55.85